Terminal Aerodrome Forecast
Issued by NWS

Home | Current Version | Previous Version | Text Only | Print | Product List | Glossary On
Versions: 1 2 3 4 5 6 7 8 9 10 11 12 13
532
FTUS45 KTFX 191120
TAFHLN
TAF
KHLN 191120Z 1912/2012 VRB05KT P6SM FEW150 FEW250
     FM191800 18011G19KT P6SM SKC
     FM200000 16006KT P6SM SKC=

USA.gov is the U.S. government's official web portal to all federal, state and local government web resources and services.